sensor_id;sensor_type;location;lat;lon;timestamp;P1;durP1;ratioP1;P2;durP2;ratioP2
73585;SDS011;61865;50.232;18.614;2024-03-23T00:55:11;41.25;;;21.77;;
73585;SDS011;61865;50.232;18.614;2024-03-23T00:57:34;42.72;;;22.13;;
73585;SDS011;61865;50.232;18.614;2024-03-23T00:59:55;36.65;;;21.60;;
73585;SDS011;61865;50.232;18.614;2024-03-23T01:02:17;40.47;;;21.40;;
73585;SDS011;61865;50.232;18.614;2024-03-23T01:07:01;42.53;;;23.00;;
73585;SDS011;61865;50.232;18.614;2024-03-23T01:09:22;42.58;;;22.73;;
73585;SDS011;61865;50.232;18.614;2024-03-23T01:11:47;40.13;;;23.02;;
73585;SDS011;61865;50.232;18.614;2024-03-23T01:14:08;38.10;;;22.55;;
73585;SDS011;61865;50.232;18.614;2024-03-23T01:16:31;43.75;;;23.58;;
73585;SDS011;61865;50.232;18.614;2024-03-23T01:18:52;44.53;;;25.45;;
73585;SDS011;61865;50.232;18.614;2024-03-23T01:21:14;47.85;;;27.77;;
73585;SDS011;61865;50.232;18.614;2024-03-23T01:25:57;49.78;;;25.90;;
73585;SDS011;61865;50.232;18.614;2024-03-23T01:28:20;41.17;;;24.27;;
73585;SDS011;61865;50.232;18.614;2024-03-23T01:30:43;45.08;;;23.90;;
73585;SDS011;61865;50.232;18.614;2024-03-23T01:33:05;47.40;;;25.67;;
73585;SDS011;61865;50.232;18.614;2024-03-23T01:35:27;40.38;;;22.45;;
73585;SDS011;61865;50.232;18.614;2024-03-23T01:37:48;39.85;;;23.38;;
73585;SDS011;61865;50.232;18.614;2024-03-23T01:40:11;38.20;;;23.52;;
73585;SDS011;61865;50.232;18.614;2024-03-23T01:42:33;44.28;;;24.10;;
73585;SDS011;61865;50.232;18.614;2024-03-23T01:44:57;42.78;;;23.17;;
73585;SDS011;61865;50.232;18.614;2024-03-23T01:47:18;34.15;;;21.98;;
73585;SDS011;61865;50.232;18.614;2024-03-23T01:49:40;41.10;;;22.15;;
73585;SDS011;61865;50.232;18.614;2024-03-23T01:54:24;37.63;;;21.65;;
73585;SDS011;61865;50.232;18.614;2024-03-23T01:56:46;35.47;;;21.13;;
73585;SDS011;61865;50.232;18.614;2024-03-23T01:59:08;42.75;;;21.45;;
73585;SDS011;61865;50.232;18.614;2024-03-23T02:03:53;40.65;;;19.50;;
73585;SDS011;61865;50.232;18.614;2024-03-23T02:06:14;34.20;;;18.63;;
73585;SDS011;61865;50.232;18.614;2024-03-23T02:08:36;44.25;;;21.63;;
73585;SDS011;61865;50.232;18.614;2024-03-23T02:13:20;38.58;;;21.00;;
73585;SDS011;61865;50.232;18.614;2024-03-23T02:18:03;35.08;;;18.73;;
73585;SDS011;61865;50.232;18.614;2024-03-23T02:22:51;55.88;;;32.92;;
73585;SDS011;61865;50.232;18.614;2024-03-23T02:25:12;58.83;;;36.17;;
73585;SDS011;61865;50.232;18.614;2024-03-23T02:27:35;66.47;;;38.47;;
73585;SDS011;61865;50.232;18.614;2024-03-23T02:29:58;69.93;;;37.85;;
73585;SDS011;61865;50.232;18.614;2024-03-23T02:32:21;73.30;;;38.13;;
73585;SDS011;61865;50.232;18.614;2024-03-23T02:37:09;56.08;;;34.92;;
73585;SDS011;61865;50.232;18.614;2024-03-23T02:39:32;58.13;;;33.72;;
73585;SDS011;61865;50.232;18.614;2024-03-23T02:41:55;60.90;;;34.17;;
73585;SDS011;61865;50.232;18.614;2024-03-23T02:46:38;64.18;;;35.50;;
73585;SDS011;61865;50.232;18.614;2024-03-23T02:48:59;68.25;;;35.25;;
73585;SDS011;61865;50.232;18.614;2024-03-23T02:51:22;64.13;;;35.25;;
73585;SDS011;61865;50.232;18.614;2024-03-23T02:56:07;49.17;;;29.40;;
73585;SDS011;61865;50.232;18.614;2024-03-23T02:58:28;50.78;;;29.50;;
73585;SDS011;61865;50.232;18.614;2024-03-23T03:00:51;56.15;;;29.38;;
73585;SDS011;61865;50.232;18.614;2024-03-23T03:03:12;51.03;;;27.58;;
73585;SDS011;61865;50.232;18.614;2024-03-23T03:05:34;44.05;;;28.38;;
73585;SDS011;61865;50.232;18.614;2024-03-23T03:07:55;51.92;;;28.65;;
73585;SDS011;61865;50.232;18.614;2024-03-23T03:10:18;50.65;;;30.33;;
73585;SDS011;61865;50.232;18.614;2024-03-23T03:12:40;45.20;;;27.35;;
73585;SDS011;61865;50.232;18.614;2024-03-23T03:15:03;38.60;;;24.33;;
73585;SDS011;61865;50.232;18.614;2024-03-23T03:17:25;31.10;;;21.35;;
73585;SDS011;61865;50.232;18.614;2024-03-23T03:19:47;39.00;;;21.08;;
73585;SDS011;61865;50.232;18.614;2024-03-23T03:24:30;33.47;;;20.58;;
73585;SDS011;61865;50.232;18.614;2024-03-23T03:29:15;29.98;;;19.25;;
73585;SDS011;61865;50.232;18.614;2024-03-23T03:31:36;35.38;;;22.60;;
73585;SDS011;61865;50.232;18.614;2024-03-23T03:33:59;43.08;;;24.95;;
73585;SDS011;61865;50.232;18.614;2024-03-23T03:36:20;45.95;;;28.92;;
73585;SDS011;61865;50.232;18.614;2024-03-23T03:38:42;48.03;;;28.30;;
73585;SDS011;61865;50.232;18.614;2024-03-23T03:41:03;52.38;;;28.42;;
73585;SDS011;61865;50.232;18.614;2024-03-23T03:43:27;39.92;;;24.30;;
73585;SDS011;61865;50.232;18.614;2024-03-23T03:48:14;38.05;;;23.27;;
73585;SDS011;61865;50.232;18.614;2024-03-23T03:50:36;46.97;;;25.35;;
73585;SDS011;61865;50.232;18.614;2024-03-23T03:52:58;48.22;;;25.50;;
73585;SDS011;61865;50.232;18.614;2024-03-23T03:57:44;43.88;;;24.20;;
73585;SDS011;61865;50.232;18.614;2024-03-23T04:00:06;41.63;;;23.10;;
73585;SDS011;61865;50.232;18.614;2024-03-23T04:02:31;39.13;;;23.77;;
73585;SDS011;61865;50.232;18.614;2024-03-23T04:04:53;39.05;;;22.98;;
73585;SDS011;61865;50.232;18.614;2024-03-23T04:07:16;40.90;;;22.95;;
73585;SDS011;61865;50.232;18.614;2024-03-23T04:09:38;40.70;;;24.45;;
73585;SDS011;61865;50.232;18.614;2024-03-23T04:12:00;39.03;;;23.02;;
73585;SDS011;61865;50.232;18.614;2024-03-23T04:16:44;35.55;;;21.10;;
73585;SDS011;61865;50.232;18.614;2024-03-23T04:19:05;36.13;;;21.70;;
73585;SDS011;61865;50.232;18.614;2024-03-23T04:21:29;33.78;;;21.40;;
73585;SDS011;61865;50.232;18.614;2024-03-23T04:23:53;38.30;;;20.65;;
73585;SDS011;61865;50.232;18.614;2024-03-23T04:26:16;33.85;;;20.60;;
73585;SDS011;61865;50.232;18.614;2024-03-23T04:31:02;29.73;;;17.77;;
73585;SDS011;61865;50.232;18.614;2024-03-23T04:33:24;29.20;;;17.35;;
73585;SDS011;61865;50.232;18.614;2024-03-23T04:35:48;26.48;;;16.08;;
73585;SDS011;61865;50.232;18.614;2024-03-23T04:38:11;31.08;;;17.60;;
73585;SDS011;61865;50.232;18.614;2024-03-23T04:40:33;27.08;;;17.35;;
73585;SDS011;61865;50.232;18.614;2024-03-23T04:42:55;34.80;;;19.73;;
73585;SDS011;61865;50.232;18.614;2024-03-23T04:45:18;33.38;;;19.00;;
73585;SDS011;61865;50.232;18.614;2024-03-23T04:47:40;31.00;;;18.80;;
73585;SDS011;61865;50.232;18.614;2024-03-23T04:50:02;31.20;;;19.83;;
73585;SDS011;61865;50.232;18.614;2024-03-23T04:52:25;28.40;;;19.08;;
73585;SDS011;61865;50.232;18.614;2024-03-23T04:54:48;39.53;;;21.30;;
73585;SDS011;61865;50.232;18.614;2024-03-23T04:57:11;41.17;;;25.45;;
73585;SDS011;61865;50.232;18.614;2024-03-23T04:59:32;37.90;;;24.63;;
73585;SDS011;61865;50.232;18.614;2024-03-23T05:01:54;38.50;;;23.80;;
73585;SDS011;61865;50.232;18.614;2024-03-23T05:04:16;51.75;;;28.33;;
73585;SDS011;61865;50.232;18.614;2024-03-23T05:06:38;43.47;;;26.95;;
73585;SDS011;61865;50.232;18.614;2024-03-23T05:11:24;37.15;;;24.63;;
73585;SDS011;61865;50.232;18.614;2024-03-23T05:13:46;39.50;;;22.85;;
73585;SDS011;61865;50.232;18.614;2024-03-23T05:16:08;39.42;;;23.92;;
73585;SDS011;61865;50.232;18.614;2024-03-23T05:18:29;39.60;;;22.58;;
73585;SDS011;61865;50.232;18.614;2024-03-23T05:20:55;38.15;;;23.40;;
73585;SDS011;61865;50.232;18.614;2024-03-23T05:23:16;31.85;;;21.30;;
73585;SDS011;61865;50.232;18.614;2024-03-23T05:25:38;38.83;;;21.65;;
73585;SDS011;61865;50.232;18.614;2024-03-23T05:28:01;34.28;;;21.50;;
73585;SDS011;61865;50.232;18.614;2024-03-23T05:30:23;33.90;;;21.50;;
73585;SDS011;61865;50.232;18.614;2024-03-23T05:35:07;37.80;;;19.15;;
73585;SDS011;61865;50.232;18.614;2024-03-23T05:39:53;32.38;;;20.38;;
73585;SDS011;61865;50.232;18.614;2024-03-23T05:42:15;30.40;;;19.60;;
73585;SDS011;61865;50.232;18.614;2024-03-23T05:44:39;28.20;;;16.75;;
73585;SDS011;61865;50.232;18.614;2024-03-23T05:47:00;23.95;;;14.50;;
73585;SDS011;61865;50.232;18.614;2024-03-23T05:49:23;18.85;;;12.50;;
73585;SDS011;61865;50.232;18.614;2024-03-23T05:51:46;22.05;;;12.75;;
73585;SDS011;61865;50.232;18.614;2024-03-23T05:54:08;22.75;;;13.15;;
73585;SDS011;61865;50.232;18.614;2024-03-23T05:58:54;17.02;;;10.77;;
73585;SDS011;61865;50.232;18.614;2024-03-23T06:01:16;19.88;;;11.63;;
73585;SDS011;61865;50.232;18.614;2024-03-23T06:03:39;21.00;;;11.85;;
73585;SDS011;61865;50.232;18.614;2024-03-23T06:06:00;21.95;;;12.13;;
73585;SDS011;61865;50.232;18.614;2024-03-23T06:08:22;20.63;;;13.30;;
73585;SDS011;61865;50.232;18.614;2024-03-23T06:10:44;20.65;;;13.38;;
73585;SDS011;61865;50.232;18.614;2024-03-23T06:13:10;21.88;;;11.75;;
73585;SDS011;61865;50.232;18.614;2024-03-23T06:15:31;20.13;;;11.85;;
73585;SDS011;61865;50.232;18.614;2024-03-23T06:17:59;19.80;;;11.27;;
73585;SDS011;61865;50.232;18.614;2024-03-23T06:20:20;17.38;;;10.73;;
73585;SDS011;61865;50.232;18.614;2024-03-23T06:22:42;17.00;;;9.90;;
73585;SDS011;61865;50.232;18.614;2024-03-23T06:25:04;16.73;;;10.68;;
73585;SDS011;61865;50.232;18.614;2024-03-23T06:27:26;17.98;;;10.45;;
73585;SDS011;61865;50.232;18.614;2024-03-23T06:29:47;16.42;;;10.32;;
73585;SDS011;61865;50.232;18.614;2024-03-23T06:32:10;21.42;;;10.38;;
73585;SDS011;61865;50.232;18.614;2024-03-23T06:34:32;16.70;;;10.60;;
73585;SDS011;61865;50.232;18.614;2024-03-23T06:36:55;16.50;;;10.70;;
73585;SDS011;61865;50.232;18.614;2024-03-23T06:39:16;14.00;;;10.07;;
73585;SDS011;61865;50.232;18.614;2024-03-23T06:41:38;15.20;;;10.13;;
73585;SDS011;61865;50.232;18.614;2024-03-23T06:46:22;13.77;;;8.50;;
73585;SDS011;61865;50.232;18.614;2024-03-23T06:51:07;15.07;;;9.48;;
73585;SDS011;61865;50.232;18.614;2024-03-23T06:53:29;14.50;;;8.85;;
73585;SDS011;61865;50.232;18.614;2024-03-23T06:55:51;14.25;;;8.20;;
73585;SDS011;61865;50.232;18.614;2024-03-23T06:58:13;16.23;;;9.43;;
73585;SDS011;61865;50.232;18.614;2024-03-23T07:00:35;19.35;;;9.23;;
73585;SDS011;61865;50.232;18.614;2024-03-23T07:05:20;14.75;;;8.02;;
73585;SDS011;61865;50.232;18.614;2024-03-23T07:10:05;9.90;;;7.28;;
73585;SDS011;61865;50.232;18.614;2024-03-23T07:12:26;18.00;;;9.02;;
73585;SDS011;61865;50.232;18.614;2024-03-23T07:14:49;14.23;;;9.02;;
73585;SDS011;61865;50.232;18.614;2024-03-23T07:17:10;14.45;;;7.68;;
73585;SDS011;61865;50.232;18.614;2024-03-23T07:19:32;13.65;;;7.43;;
73585;SDS011;61865;50.232;18.614;2024-03-23T07:24:18;14.77;;;6.80;;
73585;SDS011;61865;50.232;18.614;2024-03-23T07:26:45;10.23;;;6.90;;
73585;SDS011;61865;50.232;18.614;2024-03-23T07:29:07;14.05;;;7.60;;
73585;SDS011;61865;50.232;18.614;2024-03-23T07:33:50;14.45;;;7.15;;
73585;SDS011;61865;50.232;18.614;2024-03-23T07:38:34;12.05;;;6.15;;
73585;SDS011;61865;50.232;18.614;2024-03-23T07:43:18;10.30;;;6.28;;
73585;SDS011;61865;50.232;18.614;2024-03-23T07:45:40;15.60;;;7.28;;
73585;SDS011;61865;50.232;18.614;2024-03-23T07:48:02;16.45;;;6.88;;
73585;SDS011;61865;50.232;18.614;2024-03-23T07:50:24;9.50;;;6.32;;
73585;SDS011;61865;50.232;18.614;2024-03-23T07:52:46;10.10;;;6.15;;
73585;SDS011;61865;50.232;18.614;2024-03-23T07:57:29;9.55;;;5.38;;
73585;SDS011;61865;50.232;18.614;2024-03-23T08:02:16;10.45;;;6.07;;
73585;SDS011;61865;50.232;18.614;2024-03-23T08:04:38;13.32;;;6.70;;
73585;SDS011;61865;50.232;18.614;2024-03-23T08:07:00;13.38;;;6.72;;
73585;SDS011;61865;50.232;18.614;2024-03-23T08:11:44;11.73;;;6.30;;
73585;SDS011;61865;50.232;18.614;2024-03-23T08:14:06;11.93;;;5.90;;
73585;SDS011;61865;50.232;18.614;2024-03-23T08:16:35;11.93;;;5.47;;
73585;SDS011;61865;50.232;18.614;2024-03-23T08:18:58;10.20;;;6.60;;
73585;SDS011;61865;50.232;18.614;2024-03-23T08:21:20;8.88;;;5.70;;
73585;SDS011;61865;50.232;18.614;2024-03-23T08:23:42;10.27;;;5.10;;
73585;SDS011;61865;50.232;18.614;2024-03-23T08:26:05;7.80;;;5.05;;
73585;SDS011;61865;50.232;18.614;2024-03-23T08:28:27;11.23;;;5.45;;
73585;SDS011;61865;50.232;18.614;2024-03-23T08:30:49;10.15;;;5.35;;
73585;SDS011;61865;50.232;18.614;2024-03-23T08:35:34;8.85;;;5.03;;
73585;SDS011;61865;50.232;18.614;2024-03-23T08:37:55;12.30;;;5.47;;
73585;SDS011;61865;50.232;18.614;2024-03-23T08:40:17;9.38;;;5.65;;
73585;SDS011;61865;50.232;18.614;2024-03-23T08:45:01;11.00;;;5.43;;
73585;SDS011;61865;50.232;18.614;2024-03-23T08:49:44;11.32;;;5.53;;
73585;SDS011;61865;50.232;18.614;2024-03-23T08:54:29;9.82;;;4.80;;
73585;SDS011;61865;50.232;18.614;2024-03-23T08:56:51;9.40;;;5.47;;
73585;SDS011;61865;50.232;18.614;2024-03-23T08:59:13;11.57;;;5.65;;
73585;SDS011;61865;50.232;18.614;2024-03-23T09:03:57;7.88;;;5.05;;
73585;SDS011;61865;50.232;18.614;2024-03-23T09:08:40;7.32;;;4.20;;
73585;SDS011;61865;50.232;18.614;2024-03-23T09:13:27;12.18;;;4.97;;
73585;SDS011;61865;50.232;18.614;2024-03-23T09:15:49;9.63;;;4.97;;
73585;SDS011;61865;50.232;18.614;2024-03-23T09:18:11;13.00;;;5.13;;
73585;SDS011;61865;50.232;18.614;2024-03-23T09:22:54;10.30;;;5.25;;
73585;SDS011;61865;50.232;18.614;2024-03-23T09:27:38;10.05;;;5.32;;
73585;SDS011;61865;50.232;18.614;2024-03-23T09:32:22;11.73;;;5.45;;
73585;SDS011;61865;50.232;18.614;2024-03-23T09:34:44;9.55;;;5.85;;
73585;SDS011;61865;50.232;18.614;2024-03-23T09:37:06;8.57;;;4.93;;
73585;SDS011;61865;50.232;18.614;2024-03-23T09:41:49;9.23;;;5.32;;
73585;SDS011;61865;50.232;18.614;2024-03-23T09:46:33;10.93;;;5.72;;
73585;SDS011;61865;50.232;18.614;2024-03-23T09:48:57;10.52;;;5.55;;
73585;SDS011;61865;50.232;18.614;2024-03-23T09:51:20;11.57;;;5.45;;
73585;SDS011;61865;50.232;18.614;2024-03-23T09:56:03;8.15;;;5.20;;
73585;SDS011;61865;50.232;18.614;2024-03-23T09:58:25;12.23;;;5.85;;
73585;SDS011;61865;50.232;18.614;2024-03-23T10:00:47;10.70;;;4.93;;
73585;SDS011;61865;50.232;18.614;2024-03-23T10:05:32;11.73;;;5.22;;
73585;SDS011;61865;50.232;18.614;2024-03-23T10:07:54;8.52;;;4.97;;
73585;SDS011;61865;50.232;18.614;2024-03-23T10:10:16;8.48;;;4.68;;
73585;SDS011;61865;50.232;18.614;2024-03-23T10:12:40;12.63;;;5.75;;
73585;SDS011;61865;50.232;18.614;2024-03-23T10:15:06;10.90;;;5.65;;
73585;SDS011;61865;50.232;18.614;2024-03-23T10:17:36;11.25;;;5.00;;
73585;SDS011;61865;50.232;18.614;2024-03-23T10:19:58;9.68;;;5.70;;
73585;SDS011;61865;50.232;18.614;2024-03-23T10:22:23;9.60;;;5.20;;
73585;SDS011;61865;50.232;18.614;2024-03-23T10:24:45;11.23;;;5.10;;
73585;SDS011;61865;50.232;18.614;2024-03-23T10:27:07;11.65;;;5.57;;
73585;SDS011;61865;50.232;18.614;2024-03-23T10:29:29;11.15;;;5.95;;
73585;SDS011;61865;50.232;18.614;2024-03-23T10:34:12;7.55;;;4.53;;
73585;SDS011;61865;50.232;18.614;2024-03-23T10:36:34;7.80;;;4.80;;
73585;SDS011;61865;50.232;18.614;2024-03-23T10:39:02;9.57;;;4.88;;
73585;SDS011;61865;50.232;18.614;2024-03-23T10:41:24;8.05;;;4.57;;
73585;SDS011;61865;50.232;18.614;2024-03-23T10:43:48;7.57;;;4.45;;
73585;SDS011;61865;50.232;18.614;2024-03-23T10:46:10;10.55;;;5.00;;
73585;SDS011;61865;50.232;18.614;2024-03-23T10:48:32;9.25;;;4.28;;
73585;SDS011;61865;50.232;18.614;2024-03-23T10:50:54;7.65;;;4.63;;
73585;SDS011;61865;50.232;18.614;2024-03-23T10:53:16;10.88;;;4.57;;
73585;SDS011;61865;50.232;18.614;2024-03-23T10:55:40;9.77;;;4.90;;
73585;SDS011;61865;50.232;18.614;2024-03-23T10:58:04;7.75;;;4.20;;
73585;SDS011;61865;50.232;18.614;2024-03-23T11:02:47;9.57;;;3.88;;
73585;SDS011;61865;50.232;18.614;2024-03-23T11:07:58;6.72;;;4.40;;
73585;SDS011;61865;50.232;18.614;2024-03-23T11:12:41;5.05;;;3.40;;
73585;SDS011;61865;50.232;18.614;2024-03-23T11:15:04;8.07;;;3.35;;
73585;SDS011;61865;50.232;18.614;2024-03-23T11:17:26;8.23;;;3.50;;
73585;SDS011;61865;50.232;18.614;2024-03-23T11:19:55;5.32;;;3.05;;
73585;SDS011;61865;50.232;18.614;2024-03-23T11:22:17;6.57;;;2.92;;
73585;SDS011;61865;50.232;18.614;2024-03-23T11:24:59;5.75;;;2.88;;
73585;SDS011;61865;50.232;18.614;2024-03-23T11:29:44;9.35;;;3.50;;
73585;SDS011;61865;50.232;18.614;2024-03-23T11:32:07;6.68;;;3.20;;
73585;SDS011;61865;50.232;18.614;2024-03-23T11:34:33;6.05;;;3.25;;
73585;SDS011;61865;50.232;18.614;2024-03-23T11:37:03;7.20;;;3.00;;
73585;SDS011;61865;50.232;18.614;2024-03-23T11:39:26;9.55;;;3.50;;
73585;SDS011;61865;50.232;18.614;2024-03-23T11:41:48;6.65;;;3.20;;
73585;SDS011;61865;50.232;18.614;2024-03-23T11:44:14;5.60;;;2.83;;
73585;SDS011;61865;50.232;18.614;2024-03-23T11:46:36;5.97;;;2.90;;
73585;SDS011;61865;50.232;18.614;2024-03-23T11:48:59;4.65;;;2.88;;
73585;SDS011;61865;50.232;18.614;2024-03-23T11:53:42;5.95;;;2.90;;
73585;SDS011;61865;50.232;18.614;2024-03-23T11:58:26;5.38;;;2.90;;
73585;SDS011;61865;50.232;18.614;2024-03-23T12:00:51;12.80;;;2.53;;
73585;SDS011;61865;50.232;18.614;2024-03-23T12:03:15;5.00;;;2.40;;
73585;SDS011;61865;50.232;18.614;2024-03-23T12:05:37;7.75;;;2.83;;
73585;SDS011;61865;50.232;18.614;2024-03-23T12:08:15;7.03;;;2.85;;
73585;SDS011;61865;50.232;18.614;2024-03-23T12:10:37;5.40;;;2.70;;
73585;SDS011;61865;50.232;18.614;2024-03-23T12:13:00;6.40;;;2.40;;
73585;SDS011;61865;50.232;18.614;2024-03-23T12:15:21;6.10;;;2.40;;
73585;SDS011;61865;50.232;18.614;2024-03-23T12:17:43;5.70;;;2.20;;
73585;SDS011;61865;50.232;18.614;2024-03-23T12:20:06;5.70;;;2.42;;
73585;SDS011;61865;50.232;18.614;2024-03-23T12:22:29;7.30;;;3.20;;
73585;SDS011;61865;50.232;18.614;2024-03-23T12:27:12;5.80;;;2.38;;
73585;SDS011;61865;50.232;18.614;2024-03-23T12:29:34;5.05;;;2.63;;
73585;SDS011;61865;50.232;18.614;2024-03-23T12:31:59;5.57;;;2.70;;
73585;SDS011;61865;50.232;18.614;2024-03-23T12:34:20;11.35;;;3.90;;
73585;SDS011;61865;50.232;18.614;2024-03-23T12:36:44;5.60;;;2.60;;
73585;SDS011;61865;50.232;18.614;2024-03-23T12:39:05;12.95;;;4.00;;
73585;SDS011;61865;50.232;18.614;2024-03-23T12:41:28;4.15;;;2.33;;
73585;SDS011;61865;50.232;18.614;2024-03-23T12:46:11;5.10;;;2.08;;
73585;SDS011;61865;50.232;18.614;2024-03-23T12:50:54;5.03;;;1.98;;
73585;SDS011;61865;50.232;18.614;2024-03-23T12:53:17;3.85;;;2.00;;
73585;SDS011;61865;50.232;18.614;2024-03-23T12:55:40;5.18;;;2.20;;
73585;SDS011;61865;50.232;18.614;2024-03-23T12:58:01;4.60;;;2.40;;
73585;SDS011;61865;50.232;18.614;2024-03-23T13:00:23;5.80;;;2.17;;
73585;SDS011;61865;50.232;18.614;2024-03-23T13:02:48;3.83;;;1.95;;
73585;SDS011;61865;50.232;18.614;2024-03-23T13:05:10;7.43;;;2.67;;
73585;SDS011;61865;50.232;18.614;2024-03-23T13:07:32;3.72;;;2.10;;
73585;SDS011;61865;50.232;18.614;2024-03-23T13:09:56;9.95;;;2.20;;
73585;SDS011;61865;50.232;18.614;2024-03-23T13:12:18;3.83;;;2.08;;
73585;SDS011;61865;50.232;18.614;2024-03-23T13:14:40;2.63;;;1.98;;
73585;SDS011;61865;50.232;18.614;2024-03-23T13:17:02;5.25;;;2.58;;
73585;SDS011;61865;50.232;18.614;2024-03-23T13:19:24;8.60;;;2.50;;
73585;SDS011;61865;50.232;18.614;2024-03-23T13:21:47;5.80;;;2.40;;
73585;SDS011;61865;50.232;18.614;2024-03-23T13:24:09;6.85;;;2.97;;
73585;SDS011;61865;50.232;18.614;2024-03-23T13:26:32;4.28;;;2.45;;
73585;SDS011;61865;50.232;18.614;2024-03-23T13:28:54;25.00;;;3.38;;
73585;SDS011;61865;50.232;18.614;2024-03-23T13:33:39;14.23;;;2.80;;
73585;SDS011;61865;50.232;18.614;2024-03-23T13:36:02;4.45;;;1.80;;
73585;SDS011;61865;50.232;18.614;2024-03-23T13:38:25;14.70;;;3.03;;
73585;SDS011;61865;50.232;18.614;2024-03-23T13:50:45;0.90;;;0.90;;
73585;SDS011;61865;50.232;18.614;2024-03-23T13:53:08;1.00;;;1.00;;
73585;SDS011;61865;50.232;18.614;2024-03-23T13:57:52;25.55;;;3.40;;
73585;SDS011;61865;50.232;18.614;2024-03-23T14:00:13;1.00;;;1.00;;
73585;SDS011;61865;50.232;18.614;2024-03-23T14:02:36;1.00;;;1.00;;
73585;SDS011;61865;50.232;18.614;2024-03-23T14:04:57;1.00;;;1.00;;
73585;SDS011;61865;50.232;18.614;2024-03-23T14:07:21;1.00;;;1.00;;
73585;SDS011;61865;50.232;18.614;2024-03-23T14:09:42;0.90;;;0.90;;
73585;SDS011;61865;50.232;18.614;2024-03-23T14:12:05;1.30;;;1.30;;
73585;SDS011;61865;50.232;18.614;2024-03-23T14:14:29;0.98;;;0.98;;
73585;SDS011;61865;50.232;18.614;2024-03-23T14:16:51;1.00;;;1.00;;
73585;SDS011;61865;50.232;18.614;2024-03-23T14:19:13;1.00;;;1.00;;
73585;SDS011;61865;50.232;18.614;2024-03-23T14:21:35;0.90;;;0.90;;
73585;SDS011;61865;50.232;18.614;2024-03-23T14:26:22;1.00;;;1.00;;
73585;SDS011;61865;50.232;18.614;2024-03-23T14:28:44;0.90;;;0.90;;
73585;SDS011;61865;50.232;18.614;2024-03-23T14:31:06;1.00;;;1.00;;
73585;SDS011;61865;50.232;18.614;2024-03-23T14:33:31;1.00;;;1.00;;
73585;SDS011;61865;50.232;18.614;2024-03-23T14:35:54;0.93;;;0.93;;
73585;SDS011;61865;50.232;18.614;2024-03-23T14:38:15;1.00;;;1.00;;
73585;SDS011;61865;50.232;18.614;2024-03-23T14:40:38;1.13;;;1.13;;
73585;SDS011;61865;50.232;18.614;2024-03-23T14:43:01;1.15;;;1.15;;
73585;SDS011;61865;50.232;18.614;2024-03-23T14:45:23;1.30;;;1.30;;
73585;SDS011;61865;50.232;18.614;2024-03-23T14:50:07;1.00;;;1.00;;
73585;SDS011;61865;50.232;18.614;2024-03-23T14:52:31;1.92;;;1.88;;
73585;SDS011;61865;50.232;18.614;2024-03-23T14:54:54;0.95;;;0.95;;
73585;SDS011;61865;50.232;18.614;2024-03-23T14:57:16;1.00;;;1.00;;
73585;SDS011;61865;50.232;18.614;2024-03-23T14:59:41;0.90;;;0.90;;
73585;SDS011;61865;50.232;18.614;2024-03-23T15:02:03;0.90;;;0.90;;
73585;SDS011;61865;50.232;18.614;2024-03-23T15:04:25;1.30;;;1.30;;
73585;SDS011;61865;50.232;18.614;2024-03-23T15:06:46;1.13;;;1.13;;
73585;SDS011;61865;50.232;18.614;2024-03-23T15:09:10;1.17;;;1.17;;
73585;SDS011;61865;50.232;18.614;2024-03-23T15:13:53;1.10;;;1.10;;
73585;SDS011;61865;50.232;18.614;2024-03-23T15:16:17;1.38;;;1.38;;
73585;SDS011;61865;50.232;18.614;2024-03-23T15:18:40;6.82;;;3.80;;
73585;SDS011;61865;50.232;18.614;2024-03-23T15:21:02;6.57;;;3.83;;
73585;SDS011;61865;50.232;18.614;2024-03-23T15:23:26;7.88;;;4.30;;
73585;SDS011;61865;50.232;18.614;2024-03-23T15:25:53;8.73;;;3.58;;
73585;SDS011;61865;50.232;18.614;2024-03-23T15:28:15;9.40;;;3.67;;
73585;SDS011;61865;50.232;18.614;2024-03-23T15:33:00;15.02;;;4.00;;
73585;SDS011;61865;50.232;18.614;2024-03-23T15:35:22;6.63;;;3.25;;
73585;SDS011;61865;50.232;18.614;2024-03-23T15:37:44;7.70;;;3.40;;
73585;SDS011;61865;50.232;18.614;2024-03-23T15:42:30;6.65;;;3.67;;
73585;SDS011;61865;50.232;18.614;2024-03-23T15:44:51;10.20;;;4.80;;
73585;SDS011;61865;50.232;18.614;2024-03-23T15:47:13;10.00;;;5.00;;
73585;SDS011;61865;50.232;18.614;2024-03-23T15:49:36;10.20;;;5.00;;
73585;SDS011;61865;50.232;18.614;2024-03-23T15:51:59;9.48;;;4.90;;
73585;SDS011;61865;50.232;18.614;2024-03-23T15:54:20;9.45;;;5.32;;
73585;SDS011;61865;50.232;18.614;2024-03-23T15:56:43;14.07;;;5.88;;
73585;SDS011;61865;50.232;18.614;2024-03-23T15:59:04;9.88;;;5.40;;
73585;SDS011;61865;50.232;18.614;2024-03-23T16:01:26;14.85;;;7.05;;
73585;SDS011;61865;50.232;18.614;2024-03-23T16:03:48;13.88;;;7.35;;
73585;SDS011;61865;50.232;18.614;2024-03-23T16:06:11;93.68;;;16.95;;
73585;SDS011;61865;50.232;18.614;2024-03-23T16:08:33;1.00;;;1.00;;
73585;SDS011;61865;50.232;18.614;2024-03-23T16:10:59;1.10;;;1.10;;
73585;SDS011;61865;50.232;18.614;2024-03-23T16:13:20;1.00;;;1.00;;
73585;SDS011;61865;50.232;18.614;2024-03-23T16:15:43;1.33;;;1.33;;
73585;SDS011;61865;50.232;18.614;2024-03-23T16:18:04;1.10;;;1.10;;
73585;SDS011;61865;50.232;18.614;2024-03-23T16:20:26;1.20;;;1.20;;
73585;SDS011;61865;50.232;18.614;2024-03-23T16:27:39;1.10;;;1.10;;
73585;SDS011;61865;50.232;18.614;2024-03-23T16:30:02;1.20;;;1.20;;
73585;SDS011;61865;50.232;18.614;2024-03-23T16:32:23;1.33;;;1.33;;
73585;SDS011;61865;50.232;18.614;2024-03-23T16:34:47;1.20;;;1.20;;
73585;SDS011;61865;50.232;18.614;2024-03-23T16:37:08;1.40;;;1.40;;
73585;SDS011;61865;50.232;18.614;2024-03-23T16:39:31;1.20;;;1.20;;
73585;SDS011;61865;50.232;18.614;2024-03-23T16:41:53;1.20;;;1.20;;
73585;SDS011;61865;50.232;18.614;2024-03-23T16:44:16;1.20;;;1.20;;
73585;SDS011;61865;50.232;18.614;2024-03-23T16:46:37;1.65;;;1.65;;
73585;SDS011;61865;50.232;18.614;2024-03-23T16:49:02;1.20;;;1.20;;
73585;SDS011;61865;50.232;18.614;2024-03-23T16:51:23;1.60;;;1.60;;
73585;SDS011;61865;50.232;18.614;2024-03-23T16:53:45;1.20;;;1.20;;
73585;SDS011;61865;50.232;18.614;2024-03-23T16:56:07;1.77;;;1.75;;
73585;SDS011;61865;50.232;18.614;2024-03-23T16:58:30;1.30;;;1.30;;
73585;SDS011;61865;50.232;18.614;2024-03-23T17:00:53;1.20;;;1.20;;
73585;SDS011;61865;50.232;18.614;2024-03-23T17:03:16;1.50;;;1.50;;
73585;SDS011;61865;50.232;18.614;2024-03-23T17:07:59;1.20;;;1.20;;
73585;SDS011;61865;50.232;18.614;2024-03-23T17:10:21;1.20;;;1.20;;
73585;SDS011;61865;50.232;18.614;2024-03-23T17:12:43;1.20;;;1.20;;
73585;SDS011;61865;50.232;18.614;2024-03-23T17:17:28;1.20;;;1.20;;
73585;SDS011;61865;50.232;18.614;2024-03-23T17:19:49;1.90;;;1.85;;
73585;SDS011;61865;50.232;18.614;2024-03-23T17:22:12;1.20;;;1.20;;
73585;SDS011;61865;50.232;18.614;2024-03-23T17:24:33;1.20;;;1.20;;
73585;SDS011;61865;50.232;18.614;2024-03-23T17:26:55;1.20;;;1.20;;
73585;SDS011;61865;50.232;18.614;2024-03-23T17:29:19;1.20;;;1.20;;
73585;SDS011;61865;50.232;18.614;2024-03-23T17:31:42;1.20;;;1.20;;
73585;SDS011;61865;50.232;18.614;2024-03-23T17:34:06;1.20;;;1.20;;
73585;SDS011;61865;50.232;18.614;2024-03-23T17:36:27;1.20;;;1.20;;